WEATHER DATA

YESTERDAY
Time Temp. Dewp. Hum. Bar. 1h Prec. 24h Prec.
00:07 2.9 0.3 83 1024.9 0.0000 0.0000
00:16 2.9 0.3 83 1025 0.0000 0.0000
00:27 2.8 0.2 83 1024.9 0.0000 0.0000
00:37 2.8 0.2 83 1024.9 0.0000 0.0000
00:47 2.8 0.4 84 1024.8 0.0000 0.0000
00:57 2.8 0.4 84 1024.7 0.0000 0.0000
01:07 2.8 0.4 84 1024.7 0.0000 0.0000
01:17 2.8 0.4 84 1024.7 0.0000 0.0000
01:27 2.9 0.5 84 1024.7 0.0000 0.0000
01:38 3.1 0.7 84 1024.7 0.0000 0.0000
01:47 3.2 0.8 84 1024.7 0.0000 0.0000
01:57 3.1 0.7 84 1024.6 0.0000 0.0000
02:07 3 0.6 84 1024.6 0.0000 0.0000
02:18 2.8 0.4 84 1024.7 0.0000 0.0000
02:28 2.7 0.3 84 1024.7 0.0000 0.0000
02:37 2.6 0.2 84 1024.6 0.0000 0.0000
02:48 2.6 0.2 84 1024.5 0.0000 0.0000
02:58 2.6 0.2 84 1024.5 0.0000 0.0000
03:08 2.8 0.5 85 1024.4 0.0000 0.0000
03:18 2.7 0.3 84 1024.4 0.0000 0.0000
03:28 2.5 0.1 84 1024.2 0.0000 0.0000
03:38 2.4 0 84 1024.1 0.0000 0.0000
03:48 2.3 0 85 1024.1 0.0000 0.0000
03:59 2.3 0 85 1024.1 0.0000 0.0000
04:08 2.3 0 85 1024.1 0.0000 0.0000
04:18 2.3 0 85 1024.1 0.0000 0.0000
04:28 2.2 0 85 1024.1 0.0000 0.0000
04:39 2.2 0 85 1024 0.0000 0.0000
04:49 2.1 -0.1 85 1023.8 0.0000 0.0000
04:58 1.9 -0.3 85 1023.7 0.0000 0.0000
05:09 1.7 -0.5 85 1023.6 0.0000 0.0000
05:19 1.7 -0.5 85 1023.6 0.0000 0.0000
05:29 1.7 -0.3 86 1023.6 0.0000 0.0000
05:39 1.6 -0.4 86 1023.7 0.0000 0.0000
05:49 1.5 -0.7 85 1023.8 0.0000 0.0000
05:59 1.3 -0.8 85 1023.8 0.0000 0.0000
06:09 1.3 -0.7 86 1023.7 0.0000 0.0000
06:20 1.1 -0.9 86 1023.8 0.0000 0.0000
06:29 1.1 -0.9 86 1023.8 0.0000 0.0000
06:39 1 -0.9 86 1023.7 0.0000 0.0000
06:49 0.9 -1 86 1023.7 0.0000 0.0000
07:00 0.9 -1 86 1023.7 0.0000 0.0000
07:10 0.7 -1.2 86 1023.8 0.0000 0.0000
07:19 0.7 -1.2 86 1024 0.0000 0.0000
07:30 0.6 -1.3 86 1023.8 0.0000 0.0000
07:40 0.5 -1.4 86 1023.8 0.0000 0.0000
07:50 0.5 -1.4 86 1023.8 0.0000 0.0000
08:00 0.4 -1.5 86 1023.8 0.0000 0.0000
08:10 0.3 -1.6 86 1024 0.0000 0.0000
08:20 0.3 -1.4 87 1024.1 0.0000 0.0000
08:30 0.4 -1.3 87 1024.2 0.0000 0.0000
08:41 0.6 -1.2 87 1024.1 0.0000 0.0000
08:51 0.8 -1 87 1024.2 0.0000 0.0000
09:00 1 -0.8 87 1024.3 0.0000 0.0000
09:10 1.3 -0.5 87 1024.3 0.0000 0.0000
09:21 1.6 -0.3 87 1024.3 0.0000 0.0000
09:31 2 0.1 87 1024.3 0.0000 0.0000
09:40 2.4 0.5 87 1024.4 0.0000 0.0000
09:51 2.7 0.8 87 1024.5 0.0000 0.0000
10:01 3 1.1 87 1024.4 0.0000 0.0000
10:11 3.5 1.5 87 1024.4 0.0000 0.0000
10:21 3.8 1.8 87 1024.4 0.0000 0.0000
10:31 4.2 2.2 87 1024.3 0.0000 0.0000
10:41 4.5 2.5 87 1024.3 0.0000 0.0000
10:51 4.9 2.8 86 1024.4 0.0000 0.0000
11:02 5.2 3.1 86 1024.3 0.0000 0.0000
11:12 5.7 3.5 86 1024.3 0.0000 0.0000
11:21 6.1 3.9 86 1024.2 0.0000 0.0000
11:31 6.6 4.4 86 1024.2 0.0000 0.0000
11:42 6.9 4.6 85 1024.1 0.0000 0.0000
11:52 7.3 4.9 85 1024.1 0.0000 0.0000
12:02 7.7 5.3 85 1024 0.0000 0.0000
12:12 8.1 5.6 84 1024 0.0000 0.0000
12:22 8.5 6 84 1024 0.0000 0.0000
12:32 8.9 6.3 84 1023.8 0.0000 0.0000
12:42 9.4 6.7 83 1023.7 0.0000 0.0000
12:53 9.8 7.1 83 1023.7 0.0000 0.0000
13:02 10.1 7.3 83 1023.5 0.0000 0.0000
13:12 10.5 7.6 82 1023.5 0.0000 0.0000
13:23 10.7 7.6 81 1023.3 0.0000 0.0000
13:33 11 7.9 81 1023.3 0.0000 0.0000
13:42 11.2 7.9 80 1023.2 0.0000 0.0000
13:52 11.5 8.2 80 1023.1 0.0000 0.0000
14:03 11.8 8.5 80 1023 0.0000 0.0000
14:13 12.1 8.6 79 1022.9 0.0000 0.0000
14:23 12.4 8.9 79 1022.9 0.0000 0.0000
14:33 12.6 9.1 79 1022.9 0.0000 0.0000
14:43 12.7 9 78 1022.8 0.0000 0.0000
14:53 12.9 9.2 78 1022.8 0.0000 0.0000
15:03 13 9.3 78 1022.7 0.0000 0.0000
15:14 13.1 9.2 77 1022.5 0.0000 0.0000
15:23 13.1 9.2 77 1022.5 0.0000 0.0000
15:33 13.2 9.3 77 1022.3 0.0000 0.0000
15:44 13.2 9.1 76 1022.2 0.0000 0.0000
15:54 13.3 9.2 76 1022.2 0.0000 0.0000
16:04 13.2 9.1 76 1022.2 0.0000 0.0000
16:13 13.1 9 76 1022.1 0.0000 0.0000
16:24 13 8.9 76 1022.1 0.0000 0.0000
16:34 12.9 8.8 76 1022.1 0.0000 0.0000
16:44 12.7 8.4 75 1022.1 0.0000 0.0000
16:54 12.5 8.2 75 1022.1 0.0000 0.0000
17:04 12.3 8 75 1022 0.0000 0.0000
17:14 12.1 8 76 1022 0.0000 0.0000
17:24 11.8 7.7 76 1022.1 0.0000 0.0000
17:35 11.5 7.4 76 1022 0.0000 0.0000
17:45 11.2 7.1 76 1022 0.0000 0.0000
17:54 10.9 7 77 1022 0.0000 0.0000
18:05 10.6 6.7 77 1022 0.0000 0.0000
18:15 10.4 6.5 77 1022 0.0000 0.0000
18:25 10 6.2 77 1022.1 0.0000 0.0000
18:35 9.8 6.2 78 1022 0.0000 0.0000
18:45 9.4 5.9 79 1022 0.0000 0.0000
18:55 9 5.6 79 1022 0.0000 0.0000
19:05 8.8 5.5 80 1022 0.0000 0.0000
19:15 8.5 5.3 80 1022 0.0000 0.0000
19:26 8.2 5 80 1022 0.0000 0.0000
19:35 7.9 4.8 81 1022 0.0000 0.0000
19:45 7.7 4.7 81 1022 0.0000 0.0000
19:56 7.5 4.5 81 1022 0.0000 0.0000
20:06 7.2 4.3 82 1021.9 0.0000 0.0000
20:15 7 4.1 82 1022 0.0000 0.0000
20:25 6.8 3.9 82 1021.9 0.0000 0.0000
20:36 6.6 3.8 82 1021.9 0.0000 0.0000
20:46 6.5 3.8 83 1021.9 0.0000 0.0000
20:56 6.3 3.6 83 1021.8 0.0000 0.0000
21:06 6.1 3.4 83 1021.7 0.0000 0.0000
21:16 6 3.3 83 1021.7 0.0000 0.0000
21:26 5.8 3.3 84 1021.7 0.0000 0.0000
21:36 5.7 3.2 84 1021.7 0.0000 0.0000
21:47 5.6 3.1 84 1021.6 0.0000 0.0000
21:56 5.5 3 84 1021.6 0.0000 0.0000
22:06 5.4 2.9 84 1021.7 0.0000 0.0000
22:17 5.2 2.7 84 1021.8 0.0000 0.0000
22:27 5.1 2.8 85 1021.8 0.0000 0.0000
22:37 5 2.7 85 1021.9 0.0000 0.0000
22:46 4.8 2.5 85 1021.9 0.0000 0.0000
22:57 4.7 2.4 85 1021.8 0.0000 0.0000
23:07 4.6 2.3 85 1021.8 0.0000 0.0000
23:17 4.5 2.2 85 1021.9 0.0000 0.0000
23:27 4.5 2.2 85 1021.9 0.0000 0.0000
23:37 4.4 2.3 86 1021.8 0.0000 0.0000
23:47 4.4 2.3 86 1021.8 0.0000 0.0000
23:57 4.3 2.2 86 1021.9 0.0000

DAY STATISTIC

2021-10-24
TEMPERATURE
AVERAGE
5.8
HIGH
13.3
15:54
LOW
0.3
08:10
PRESSURE
AVERAGE
1023.3
HIGH
1025.0
00:16
LOW
1021.6
21:47
DEWPOINT
AVERAGE
3.1
HIGH
9.3
15:03
LOW
-1.6
08:10
HUMIDITY
AVERAGE
83
HIGH
87
08:20
LOW
75
16:44
PRECIPITATION
RAIN HOUR
0.0
RAIN DAY
0.0
TEMPERATURE (°C)
LOW
0.3
HIGH
13.3
AVERAGE
5.8
PRESSURE (hpa)
LOW
1021.6
HIGH
1025.0
AVERAGE
1023.3
DEVICE